Ava, MO

6:46 PM CDT on September 18, 2014 (GMT -0500)
KMOAVA4 | Change Station
CLOSE
Current Station
Personal Weather Station
Location: Ava, MO
Elevation: 1273 ft
Nearby Weather Stations

Elev 1273 ft 36.96 °N, 92.67 °W | Updated 4 seconds ago

Overcast
Overcast
65.1 °F
Feels Like 65.1 °F
N
0.0
Wind Variable Wind from ESE
Gusts 0.0 mph

Today
High -- | Low -- °F
--% Chance of Precip.
Yesterday
High -- | Low -- °F
Precip. -- in
6:55 AM 7:13 PM
Waning Crescent, 23% visible
Pressure 29.99 in
Visibility 4.0 miles
Clouds Overcast 1000 ft
Dew Point 61 °F
Humidity 89%
Rainfall 0.00 in
Snow Depth Not available.
UV 0 out of 12
Pollen 6.00 out of 12
Air Quality Not available.
Flu Activity Not available.
SPECI KBPK 182316Z AUTO 05004KT 4SM BR OVC010 19/17 A2999 RMK AO2 T01890172

More Conditions Fewer Conditions

Pressure 29.99 in
Visibility 4.0 miles
Clouds Overcast 1000 ft
Dew Point 61 °F
Humidity 89%
Rainfall 0.00 in
Snow Depth Not available.
UV 0 out of 12
Pollen 6.00 out of 12
Air Quality Not available.
Flu Activity Not available.
SPECI KBPK 182316Z AUTO 05004KT 4SM BR OVC010 19/17 A2999 RMK AO2 T01890172

More Conditions Fewer Conditions

10-Day Weather Forecast

Almanac

Astronomy

Sep. 18, 2014 Rise Set
Actual Time 6:55 AM CDT 7:13 PM CDT
Civil Twilight 6:29 AM CDT 7:39 PM CDT
Nautical Twilight 5:58 AM CDT 8:09 PM CDT
Astronomical Twilight 5:27 AM CDT 8:40 PM CDT
Moon 1:53 AM CDT 3:59 PM CDT
Length of Visible Light 13h 10m
Length of Day
12h 18m
Tomorrow will be 2m 19s shorter.
Waning Crescent, 23% of the Moon is Illuminated
Today
Waning Crescent
Sep 24
New
Oct 1
First Quarter
Oct 8
Full
Oct 15
Last Quarter

Today's Extremes

State Highs State Lows

Community

WunderPhotos

Upload Photos

1,754,489 photos uploaded!

WunderBlogs® & News

Nearby

Snow Depth

Station Depth Elevation
No new snow has been reported.

Earthquake Activity

City Distance Mag. Time & Date
No recent earthquake activity has been reported nearby.
Minimum magnitude displayed is 2.5.

Coastal Water Temperatures

Place Temperature
No Stations Reporting

Nearby Weather Stations